Time;durP1;ratioP1;P1;durP2;ratioP2;P2;SDS_P1;SDS_P2;PMS_P1;PMS_P2;Temp;Humidity;BMP_temperature;BMP_pressure;BME280_temperature;BME280_humidity;BME280_pressure;Samples;Min_cycle;Max_cycle;Signal;HPM_P1;HPM_P2
2023/06/02 00:01:02;;;;;;;0.20;0.20;;;15.00;99.90;;;;;;5025591;28;20036;-76
2023/06/02 00:03:34;;;;;;;0.20;0.20;;;15.00;99.90;;;;;;5043498;28;20088;-77
2023/06/02 00:06:00;;;;;;;0.10;0.10;;;17.80;99.90;;;;;;5042210;28;20313;-77
2023/06/02 00:08:26;;;;;;;0.20;0.20;;;15.10;99.90;;;;;;5040841;28;20017;-77
2023/06/02 00:10:52;;;;;;;0.10;0.10;;;15.10;99.90;;;;;;5040582;28;20525;-77
2023/06/02 00:13:18;;;;;;;0.20;0.20;;;15.10;99.90;;;;;;5040542;28;20207;-77
2023/06/02 00:15:45;;;;;;;0.20;0.20;;;15.10;99.90;;;;;;5041056;28;20465;-77
2023/06/02 00:18:11;;;;;;;0.20;0.20;;;15.10;99.90;;;;;;5042860;28;20599;-78
2023/06/02 00:20:38;;;;;;;0.20;0.20;;;15.20;99.90;;;;;;5025995;28;20301;-77
2023/06/02 00:23:04;;;;;;;0.10;0.10;;;15.10;99.90;;;;;;5044217;28;20028;-77
2023/06/02 00:25:31;;;;;;;0.30;0.30;;;15.10;99.90;;;;;;5025613;28;20278;-76
2023/06/02 00:27:57;;;;;;;0.20;0.20;;;15.00;99.90;;;;;;5026032;28;20036;-78
2023/06/02 00:30:24;;;;;;;0.20;0.20;;;15.10;99.90;;;;;;5025991;28;20102;-77
2023/06/02 00:32:49;;;;;;;0.25;0.25;;;15.30;99.90;;;;;;5022956;28;20469;-77
2023/06/02 00:35:15;;;;;;;0.13;0.13;;;15.10;99.90;;;;;;5040227;28;20154;-77
2023/06/02 00:37:41;;;;;;;0.75;0.75;;;14.80;99.90;;;;;;5022353;28;20434;-76
2023/06/02 00:40:07;;;;;;;0.55;0.55;;;15.10;99.90;;;;;;5040220;28;20044;-77
2023/06/02 00:42:33;;;;;;;1.80;1.75;;;15.10;99.90;;;;;;5040231;28;20025;-76
2023/06/02 00:44:59;;;;;;;0.20;0.20;;;14.70;99.90;;;;;;5040284;28;20021;-77
2023/06/02 00:47:25;;;;;;;0.10;0.10;;;15.20;99.90;;;;;;5040010;28;20048;-77
2023/06/02 00:49:50;;;;;;;0.10;0.10;;;15.10;99.90;;;;;;5022087;28;20442;-76
2023/06/02 00:52:18;;;;;;;1.45;1.38;;;15.20;99.90;;;;;;5021972;28;20027;-77
2023/06/02 00:54:44;;;;;;;1.35;1.30;;;15.20;99.90;;;;;;5038874;28;20044;-77
2023/06/02 00:57:10;;;;;;;0.30;0.30;;;15.20;99.90;;;;;;5038850;28;20020;-77
2023/06/02 00:59:37;;;;;;;0.50;0.50;;;15.20;99.90;;;;;;5039088;28;20043;-79
2023/06/02 01:02:03;;;;;;;0.20;0.20;;;15.20;99.90;;;;;;5039022;28;20037;-77
2023/06/02 01:04:32;;;;;;;0.20;0.20;;;15.20;99.90;;;;;;5038785;28;20017;-78
2023/06/02 01:07:02;;;;;;;0.63;0.63;;;15.20;99.90;;;;;;5038776;28;20029;-77
2023/06/02 01:09:29;;;;;;;0.10;0.10;;;15.20;99.90;;;;;;5038258;28;20025;-79
2023/06/02 01:11:56;;;;;;;0.63;0.63;;;15.20;99.90;;;;;;5038606;28;20376;-77
2023/06/02 01:14:22;;;;;;;0.10;0.10;;;15.20;99.90;;;;;;5038445;28;20036;-76
2023/06/02 01:16:51;;;;;;;0.10;0.10;;;15.20;99.90;;;;;;5020362;28;20470;-77
2023/06/02 01:19:21;;;;;;;0.20;0.20;;;15.10;99.90;;;;;;5038377;28;20028;-76
2023/06/02 01:21:59;;;;;;;0.13;0.13;;;15.10;99.90;;;;;;5038314;28;20029;-77
2023/06/02 01:24:35;;;;;;;0.10;0.10;;;15.20;99.90;;;;;;5038547;28;20135;-77
2023/06/02 01:27:08;;;;;;;0.20;0.20;;;15.20;99.90;;;;;;5038445;28;20021;-80
2023/06/02 01:29:35;;;;;;;0.10;0.10;;;15.20;99.90;;;;;;5038738;28;20060;-78
2023/06/02 01:32:10;;;;;;;1.10;1.10;;;15.20;99.90;;;;;;5038763;28;20036;-76
2023/06/02 01:34:47;;;;;;;0.10;0.10;;;15.10;99.90;;;;;;5038751;28;20063;-79
2023/06/02 01:37:14;;;;;;;0.10;0.10;;;15.10;99.90;;;;;;5038862;28;20043;-76
2023/06/02 01:39:41;;;;;;;0.82;0.82;;;15.10;99.90;;;;;;5038568;28;20075;-81
2023/06/02 01:42:08;;;;;;;0.10;0.10;;;15.10;99.90;;;;;;5038179;28;20029;-78
2023/06/02 01:44:36;;;;;;;1.42;1.33;;;15.10;99.90;;;;;;5037871;28;20052;-78
2023/06/02 01:47:02;;;;;;;0.20;0.20;;;15.10;99.90;;;;;;5038149;28;20504;-79
2023/06/02 01:49:28;;;;;;;1.50;1.40;;;15.10;99.90;;;;;;5038107;28;20310;-81
2023/06/02 01:51:54;;;;;;;9.93;9.27;;;15.00;99.90;;;;;;5038050;28;20364;-78
2023/06/02 01:54:23;;;;;;;0.90;0.90;;;15.00;99.90;;;;;;4993338;28;1320766;-76
2023/06/02 01:56:48;;;;;;;1.67;1.58;;;14.90;99.90;;;;;;5039201;28;20668;-78
2023/06/02 01:59:16;;;;;;;0.20;0.20;;;14.80;99.90;;;;;;5039410;28;20055;-76
2023/06/02 02:01:42;;;;;;;1.33;1.33;;;14.70;99.90;;;;;;5039119;28;20406;-76
2023/06/02 02:04:07;;;;;;;3.47;3.33;;;14.70;99.90;;;;;;5020990;28;20056;-78
2023/06/02 02:06:34;;;;;;;10.60;9.50;;;14.70;99.90;;;;;;5020855;28;20079;-77
2023/06/02 02:09:00;;;;;;;0.93;0.93;;;14.70;99.90;;;;;;5004527;28;20021;-85
2023/06/02 02:11:27;;;;;;;1.13;1.10;;;14.70;99.90;;;;;;5020903;28;20120;-76
2023/06/02 02:13:53;;;;;;;0.70;0.70;;;14.70;99.90;;;;;;5021156;28;20334;-80
2023/06/02 02:16:21;;;;;;;0.20;0.20;;;14.70;99.90;;;;;;5020566;28;20033;-80
2023/06/02 02:18:47;;;;;;;0.10;0.10;;;14.70;99.90;;;;;;5021258;28;20353;-77
2023/06/02 02:21:14;;;;;;;0.10;0.10;;;14.70;99.90;;;;;;5020107;28;20259;-79
2023/06/02 02:23:40;;;;;;;2.22;2.13;;;14.70;99.90;;;;;;5020421;28;20017;-79
2023/06/02 02:26:06;;;;;;;0.10;0.10;;;14.70;99.90;;;;;;5020777;28;20032;-77
2023/06/02 02:28:32;;;;;;;0.20;0.20;;;14.70;99.90;;;;;;5038272;28;20415;-76
2023/06/02 02:30:58;;;;;;;0.10;0.10;;;14.70;99.90;;;;;;5003867;28;20395;-83
2023/06/02 02:33:24;;;;;;;0.20;0.20;;;14.70;99.90;;;;;;5038304;28;20606;-77
2023/06/02 02:35:53;;;;;;;0.10;0.10;;;14.70;99.90;;;;;;5038358;28;20032;-79
2023/06/02 02:38:19;;;;;;;0.20;0.20;;;14.70;99.90;;;;;;5021069;28;20036;-79
2023/06/02 02:40:48;;;;;;;0.20;0.20;;;14.60;99.90;;;;;;5020376;28;20535;-78
2023/06/02 02:43:15;;;;;;;0.73;0.70;;;12.20;99.90;;;;;;5038580;28;20214;-78
2023/06/02 02:45:41;;;;;;;0.10;0.10;;;14.70;99.90;;;;;;5039559;28;20388;-78
2023/06/02 02:48:07;;;;;;;0.20;0.20;;;14.70;99.90;;;;;;5040346;28;20051;-81
2023/06/02 02:50:33;;;;;;;0.10;0.10;;;14.70;99.90;;;;;;5040176;28;20223;-76
2023/06/02 02:52:59;;;;;;;0.15;0.15;;;14.60;99.90;;;;;;5040044;28;20037;-80
2023/06/02 02:55:25;;;;;;;0.20;0.20;;;14.60;99.90;;;;;;5039291;28;20025;-77
2023/06/02 02:57:51;;;;;;;0.28;0.28;;;14.60;99.90;;;;;;5021522;28;20463;-76
2023/06/02 03:00:17;;;;;;;0.20;0.20;;;14.60;99.90;;;;;;5038780;28;20415;-76
2023/06/02 03:02:43;;;;;;;0.10;0.10;;;14.60;99.90;;;;;;5038678;28;20403;-77
2023/06/02 03:05:10;;;;;;;0.20;0.20;;;14.60;99.90;;;;;;5038941;28;20160;-76
2023/06/02 03:07:39;;;;;;;0.10;0.10;;;14.60;99.90;;;;;;5038495;28;20079;-76
2023/06/02 03:10:09;;;;;;;0.10;0.10;;;14.60;99.90;;;;;;5039238;28;20032;-76
2023/06/02 03:12:35;;;;;;;0.20;0.20;;;13.50;99.90;;;;;;5021962;28;20029;-76
2023/06/02 03:15:01;;;;;;;0.10;0.10;;;14.70;99.90;;;;;;5038691;28;20325;-76
2023/06/02 03:17:27;;;;;;;0.15;0.15;;;14.70;99.90;;;;;;5038813;28;20135;-76
2023/06/02 03:19:55;;;;;;;0.10;0.10;;;14.70;99.90;;;;;;5038757;28;20013;-76
2023/06/02 03:22:21;;;;;;;0.20;0.20;;;14.70;99.90;;;;;;5038572;28;20110;-76
2023/06/02 03:24:46;;;;;;;0.10;0.10;;;16.20;99.90;;;;;;5020770;28;20021;-76
2023/06/02 03:27:13;;;;;;;0.10;0.10;;;14.70;99.90;;;;;;5038108;28;20226;-77
2023/06/02 03:29:40;;;;;;;0.50;0.50;;;14.70;99.90;;;;;;5038708;28;20055;-76
2023/06/02 03:32:10;;;;;;;1.20;1.17;;;14.70;99.90;;;;;;5038995;28;20423;-77
2023/06/02 03:34:39;;;;;;;0.10;0.10;;;14.80;99.90;;;;;;5039722;28;20040;-76
2023/06/02 03:37:09;;;;;;;0.13;0.13;;;14.80;99.90;;;;;;5040316;28;20021;-77
2023/06/02 03:39:36;;;;;;;0.10;0.10;;;14.80;99.90;;;;;;5022317;28;20021;-76
2023/06/02 03:42:02;;;;;;;0.22;0.22;;;14.90;99.90;;;;;;5040510;28;20376;-75
2023/06/02 03:44:29;;;;;;;0.10;0.10;;;16.10;99.90;;;;;;5021838;28;20078;-78
2023/06/02 03:46:55;;;;;;;0.20;0.20;;;13.20;99.90;;;;;;5040322;28;20035;-79
2023/06/02 03:49:21;;;;;;;0.10;0.10;;;15.00;99.90;;;;;;5021736;28;20227;-78
2023/06/02 03:51:49;;;;;;;0.10;0.10;;;15.10;99.90;;;;;;5039949;28;20021;-78
2023/06/02 03:54:15;;;;;;;0.10;0.10;;;15.00;99.90;;;;;;5021954;28;20056;-79
2023/06/02 03:56:41;;;;;;;0.20;0.20;;;15.10;99.90;;;;;;5039888;28;20430;-78
2023/06/02 03:59:07;;;;;;;0.60;0.60;;;15.10;99.90;;;;;;5039714;28;20028;-78
2023/06/02 04:01:35;;;;;;;0.20;0.20;;;15.30;99.90;;;;;;5038530;28;20063;-79
2023/06/02 04:04:01;;;;;;;1.75;1.60;;;15.00;99.90;;;;;;5025388;28;20538;-78
2023/06/02 04:06:28;;;;;;;1.05;1.05;;;15.10;99.90;;;;;;5040263;28;20108;-76
2023/06/02 04:08:54;;;;;;;0.65;0.65;;;15.10;99.90;;;;;;5022136;28;20025;-76
2023/06/02 04:11:23;;;;;;;0.10;0.10;;;15.10;99.90;;;;;;5039986;28;20093;-76
2023/06/02 04:13:49;;;;;;;0.20;0.20;;;15.10;99.90;;;;;;5040023;28;20028;-76
2023/06/02 04:16:15;;;;;;;0.10;0.10;;;14.50;99.90;;;;;;5039683;28;20225;-76
2023/06/02 04:18:41;;;;;;;0.10;0.10;;;15.10;99.90;;;;;;5040232;28;20240;-76
2023/06/02 04:21:07;;;;;;;0.17;0.17;;;15.20;99.90;;;;;;5040006;28;20064;-76
2023/06/02 04:23:34;;;;;;;0.10;0.10;;;15.20;99.90;;;;;;5040486;28;20035;-76
2023/06/02 04:26:00;;;;;;;0.20;0.20;;;15.20;99.90;;;;;;5022929;28;20613;-76
2023/06/02 04:28:26;;;;;;;0.17;0.17;;;15.30;99.90;;;;;;5040321;28;20047;-76
2023/06/02 04:30:56;;;;;;;0.10;0.10;;;15.40;99.90;;;;;;5037594;28;20095;-76
2023/06/02 04:33:24;;;;;;;0.20;0.20;;;15.40;99.90;;;;;;5021760;28;20013;-76
2023/06/02 04:35:50;;;;;;;0.30;0.30;;;15.50;99.90;;;;;;5040778;28;20018;-76
2023/06/02 04:38:16;;;;;;;0.10;0.10;;;15.50;99.90;;;;;;5038465;28;20022;-76
2023/06/02 04:40:42;;;;;;;0.10;0.10;;;15.60;99.90;;;;;;5041287;28;20119;-75
2023/06/02 04:43:08;;;;;;;0.20;0.20;;;15.60;99.90;;;;;;5041427;28;20032;-76
2023/06/02 04:45:34;;;;;;;0.22;0.22;;;15.70;99.90;;;;;;5043201;28;20140;-76
2023/06/02 04:48:03;;;;;;;0.10;0.10;;;15.70;99.90;;;;;;5044822;28;20515;-76
2023/06/02 04:50:31;;;;;;;2.08;1.98;;;15.70;99.90;;;;;;5044447;28;20021;-76
2023/06/02 04:52:57;;;;;;;14.98;13.73;;;15.80;99.90;;;;;;5046563;28;20095;-79
2023/06/02 04:55:23;;;;;;;2.63;2.53;;;15.90;99.90;;;;;;5035090;28;20037;-79
2023/06/02 04:57:49;;;;;;;0.50;0.50;;;16.00;99.90;;;;;;5045104;28;20029;-79
2023/06/02 05:00:16;;;;;;;2.38;1.40;;;16.00;99.90;;;;;;5044050;28;20017;-78
2023/06/02 05:02:45;;;;;;;0.10;0.10;;;16.10;99.90;;;;;;5042139;28;20040;-79
2023/06/02 05:05:12;;;;;;;0.22;0.22;;;16.10;99.90;;;;;;5043407;28;20017;-76
2023/06/02 05:07:38;;;;;;;1.40;1.40;;;16.10;99.90;;;;;;5043335;28;20024;-77
2023/06/02 05:10:04;;;;;;;0.20;0.20;;;16.10;99.90;;;;;;5042826;28;20032;-76
2023/06/02 05:12:31;;;;;;;0.82;0.82;;;16.20;99.90;;;;;;5043043;28;20342;-77
2023/06/02 05:14:56;;;;;;;0.90;0.90;;;16.20;99.90;;;;;;5043175;28;20090;-77
2023/06/02 05:17:29;;;;;;;0.45;0.45;;;16.20;99.90;;;;;;5043392;28;20037;-76
2023/06/02 05:19:55;;;;;;;0.10;0.10;;;16.30;99.90;;;;;;5043707;28;20017;-76
2023/06/02 05:22:22;;;;;;;0.10;0.10;;;16.40;99.90;;;;;;5043308;28;20063;-77
2023/06/02 05:24:47;;;;;;;0.10;0.10;;;16.40;99.90;;;;;;5024894;28;20417;-76
2023/06/02 05:27:13;;;;;;;0.85;0.85;;;16.50;99.90;;;;;;5045519;28;20040;-76
2023/06/02 05:29:39;;;;;;;0.10;0.10;;;16.50;99.90;;;;;;5042955;28;20043;-76
2023/06/02 05:32:07;;;;;;;0.10;0.10;;;16.20;99.90;;;;;;5040439;28;20025;-79
2023/06/02 05:34:33;;;;;;;0.47;0.47;;;16.70;99.90;;;;;;5041974;28;20021;-76
2023/06/02 05:37:03;;;;;;;0.20;0.20;;;16.60;99.90;;;;;;5041230;28;20657;-77
2023/06/02 05:39:32;;;;;;;0.20;0.20;;;16.70;99.90;;;;;;5042251;28;20028;-78
2023/06/02 05:41:59;;;;;;;0.10;0.10;;;16.80;99.90;;;;;;5042141;28;20075;-77
2023/06/02 05:44:25;;;;;;;2.72;1.38;;;16.80;99.90;;;;;;5041827;28;20557;-78
2023/06/02 05:46:51;;;;;;;0.10;0.10;;;16.80;99.90;;;;;;5023726;28;20059;-77
2023/06/02 05:49:18;;;;;;;0.55;0.55;;;16.80;99.90;;;;;;5042397;28;20071;-78
2023/06/02 05:51:44;;;;;;;0.10;0.10;;;16.90;99.90;;;;;;5042554;28;20017;-79
2023/06/02 05:54:11;;;;;;;0.10;0.10;;;17.00;99.90;;;;;;5042544;28;20099;-79
2023/06/02 05:56:37;;;;;;;0.32;0.32;;;14.80;99.90;;;;;;5041278;28;20688;-78
2023/06/02 05:59:04;;;;;;;0.20;0.20;;;17.60;99.90;;;;;;5041589;28;20406;-79
2023/06/02 06:01:29;;;;;;;0.10;0.10;;;17.70;99.90;;;;;;5028948;28;20021;-79
2023/06/02 06:03:59;;;;;;;0.10;0.10;;;17.80;99.90;;;;;;5042689;28;20112;-79
2023/06/02 06:06:25;;;;;;;0.10;0.10;;;18.00;99.90;;;;;;5023910;28;20659;-76
2023/06/02 06:08:53;;;;;;;0.10;0.10;;;18.20;99.90;;;;;;5042776;28;20225;-79
2023/06/02 06:11:21;;;;;;;0.10;0.10;;;18.30;99.90;;;;;;5051244;28;20078;-78
2023/06/02 06:13:51;;;;;;;0.10;0.10;;;18.40;99.90;;;;;;5048496;28;20112;-78
2023/06/02 06:16:17;;;;;;;3.15;2.88;;;18.60;99.90;;;;;;5042645;28;20106;-77
2023/06/02 06:18:48;;;;;;;0.10;0.10;;;18.90;99.90;;;;;;5022092;28;20106;-77
2023/06/02 06:21:15;;;;;;;0.22;0.22;;;19.00;99.90;;;;;;5030801;28;20067;-78
2023/06/02 06:23:42;;;;;;;0.10;0.10;;;18.40;99.90;;;;;;5043602;28;20247;-77
2023/06/02 06:26:09;;;;;;;1.75;1.65;;;19.30;99.90;;;;;;5022902;28;20021;-77
2023/06/02 06:28:35;;;;;;;0.10;0.10;;;19.30;99.90;;;;;;5041300;28;20175;-76
2023/06/02 06:31:01;;;;;;;0.30;0.30;;;19.30;99.90;;;;;;5021959;28;20120;-76
2023/06/02 06:33:29;;;;;;;0.10;0.10;;;;;;;;;;5022911;28;20638;-79
2023/06/02 06:35:55;;;;;;;0.10;0.10;;;19.80;99.90;;;;;;5041162;28;20349;-77
2023/06/02 06:38:20;;;;;;;1.35;1.27;;;19.90;99.90;;;;;;5024425;28;20084;-79
2023/06/02 06:40:47;;;;;;;0.38;0.38;;;20.00;99.90;;;;;;5045197;28;20642;-85
2023/06/02 06:43:15;;;;;;;0.30;0.30;;;19.90;99.90;;;;;;5041523;28;20531;-77
2023/06/02 06:45:42;;;;;;;1.00;0.98;;;19.90;99.90;;;;;;5041739;28;20034;-77
2023/06/02 06:48:08;;;;;;;0.10;0.10;;;19.80;99.90;;;;;;5042770;28;20028;-77
2023/06/02 06:50:33;;;;;;;0.20;0.20;;;19.90;99.90;;;;;;5022197;28;20414;-77
2023/06/02 06:53:02;;;;;;;0.13;0.13;;;20.00;99.90;;;;;;5039494;28;20048;-77
2023/06/02 06:55:28;;;;;;;0.57;0.57;;;20.00;99.90;;;;;;5038807;28;20368;-77
2023/06/02 06:57:54;;;;;;;0.25;0.25;;;20.10;99.90;;;;;;5038359;28;20299;-77
2023/06/02 07:00:21;;;;;;;0.60;0.60;;;20.10;99.90;;;;;;5021771;28;20056;-77
2023/06/02 07:02:48;;;;;;;0.20;0.20;;;20.00;99.90;;;;;;5040237;28;20025;-76
2023/06/02 07:05:15;;;;;;;0.20;0.20;;;19.70;99.90;;;;;;5042788;28;20598;-75
2023/06/02 07:07:41;;;;;;;0.10;0.10;;;19.60;99.90;;;;;;5037901;28;20028;-84
2023/06/02 07:10:07;;;;;;;4.57;2.38;;;19.60;99.90;;;;;;5040149;28;20426;-81
2023/06/02 07:12:33;;;;;;;0.52;0.52;;;19.60;99.90;;;;;;5039489;28;20096;-77
2023/06/02 07:14:58;;;;;;;0.20;0.20;;;19.50;99.90;;;;;;5020699;28;20032;-76
2023/06/02 07:17:24;;;;;;;0.43;0.43;;;19.50;99.90;;;;;;5039891;28;20017;-83
2023/06/02 07:19:50;;;;;;;0.10;0.10;;;19.30;99.90;;;;;;5039134;28;20344;-80
2023/06/02 07:22:16;;;;;;;0.77;0.77;;;19.40;99.90;;;;;;5040080;28;20265;-76
2023/06/02 07:24:43;;;;;;;0.20;0.20;;;19.50;99.90;;;;;;5006137;28;20506;-77
2023/06/02 07:27:10;;;;;;;1.00;1.00;;;19.50;99.90;;;;;;5038325;28;20046;-82
2023/06/02 07:29:36;;;;;;;0.40;0.40;;;19.60;99.90;;;;;;5021636;28;20203;-76
2023/06/02 07:32:02;;;;;;;0.10;0.10;;;;;;;;;;5039657;28;20641;-77
2023/06/02 07:34:28;;;;;;;1.65;1.55;;;19.80;99.90;;;;;;5039973;28;20020;-76
2023/06/02 07:36:54;;;;;;;0.10;0.10;;;19.80;99.90;;;;;;5039624;28;20021;-78
2023/06/02 07:39:21;;;;;;;0.20;0.20;;;19.80;99.90;;;;;;5040170;28;20025;-77
2023/06/02 07:41:48;;;;;;;0.10;0.10;;;20.10;99.90;;;;;;5040256;28;20140;-77
2023/06/02 07:44:14;;;;;;;0.10;0.10;;;20.30;99.90;;;;;;5023603;28;20029;-78
2023/06/02 07:46:43;;;;;;;0.10;0.10;;;20.40;99.90;;;;;;5021364;28;20021;-77
2023/06/02 07:49:09;;;;;;;0.10;0.10;;;20.50;99.90;;;;;;5019395;28;20025;-78
2023/06/02 07:51:35;;;;;;;0.10;0.10;;;20.90;99.90;;;;;;5003727;28;20285;-81
2023/06/02 07:54:01;;;;;;;0.10;0.10;;;21.90;99.90;;;;;;5036964;28;20041;-78
2023/06/02 07:56:29;;;;;;;0.30;0.30;;;20.70;99.90;;;;;;5019141;28;20031;-78
2023/06/02 07:58:55;;;;;;;0.20;0.20;;;20.70;99.90;;;;;;5037259;28;20025;-80
2023/06/02 08:01:21;;;;;;;1.08;1.05;;;20.90;99.90;;;;;;5036805;28;20040;-79
2023/06/02 08:03:48;;;;;;;0.20;0.20;;;21.10;99.90;;;;;;5021323;28;20017;-78
2023/06/02 08:06:14;;;;;;;0.43;0.43;;;21.20;99.90;;;;;;5023016;28;20045;-78
2023/06/02 08:08:40;;;;;;;0.85;0.85;;;20.90;99.90;;;;;;5040207;28;20396;-79
2023/06/02 08:11:06;;;;;;;1.67;1.58;;;20.90;99.90;;;;;;5036778;28;20032;-81
2023/06/02 08:13:32;;;;;;;0.20;0.20;;;19.90;99.90;;;;;;5037327;28;20029;-80
2023/06/02 08:16:00;;;;;;;0.20;0.20;;;21.20;99.90;;;;;;5037508;28;20045;-79
2023/06/02 08:18:26;;;;;;;0.10;0.10;;;21.50;99.90;;;;;;5036834;28;20253;-78
2023/06/02 08:20:51;;;;;;;0.20;0.20;;;21.70;99.90;;;;;;5040046;28;20029;-78
2023/06/02 08:23:19;;;;;;;0.10;0.10;;;21.60;99.90;;;;;;5022660;28;20092;-79
2023/06/02 08:25:45;;;;;;;1.20;1.08;;;21.90;99.90;;;;;;5040468;28;20051;-79
2023/06/02 08:28:13;;;;;;;0.10;0.10;;;22.10;99.90;;;;;;5040516;28;20503;-78
2023/06/02 08:30:44;;;;;;;0.13;0.13;;;22.40;99.90;;;;;;5041423;28;20331;-78
2023/06/02 08:33:09;;;;;;;0.10;0.10;;;22.70;99.90;;;;;;5040132;28;20128;-79
2023/06/02 08:35:38;;;;;;;0.45;0.45;;;22.40;99.90;;;;;;5040904;28;20574;-79
2023/06/02 08:38:06;;;;;;;0.20;0.20;;;22.50;99.90;;;;;;5040528;28;20302;-78
2023/06/02 08:40:37;;;;;;;0.10;0.10;;;22.70;99.90;;;;;;5041128;28;20013;-77
2023/06/02 08:43:09;;;;;;;0.10;0.10;;;22.50;99.90;;;;;;5042961;28;20021;-78
2023/06/02 08:45:46;;;;;;;0.20;0.20;;;22.70;99.90;;;;;;5042881;28;20029;-78
2023/06/02 08:48:17;;;;;;;0.10;0.10;;;22.90;99.90;;;;;;5041501;28;20342;-78
2023/06/02 08:50:47;;;;;;;0.13;0.13;;;22.90;99.90;;;;;;5040724;28;20017;-78
2023/06/02 08:53:16;;;;;;;0.55;0.55;;;23.10;99.90;;;;;;5023837;28;20067;-77
2023/06/02 08:55:42;;;;;;;0.35;0.25;;;23.20;99.90;;;;;;5039891;28;20028;-78
2023/06/02 08:58:09;;;;;;;1.38;1.27;;;23.30;99.90;;;;;;5022116;28;20037;-78
2023/06/02 09:00:36;;;;;;;0.20;0.20;;;23.20;99.90;;;;;;5021797;28;20377;-78
2023/06/02 09:03:02;;;;;;;0.20;0.20;;;23.30;99.90;;;;;;5040043;28;20624;-80
2023/06/02 09:05:28;;;;;;;0.20;0.20;;;23.60;99.90;;;;;;5062227;28;20031;-77
2023/06/02 09:08:10;;;;;;;0.10;0.10;;;23.40;99.90;;;;;;5062287;28;20020;-77
2023/06/02 09:10:40;;;;;;;0.30;0.30;;;23.70;99.90;;;;;;5062867;28;20031;-77
2023/06/02 09:13:29;;;;;;;0.10;0.10;;;24.00;99.90;;;;;;5044800;28;20051;-78
2023/06/02 09:16:02;;;;;;;0.45;0.45;;;24.00;99.90;;;;;;5045729;28;20056;-76
2023/06/02 09:18:28;;;;;;;0.63;0.63;;;24.00;99.90;;;;;;5042490;28;20028;-78
2023/06/02 09:20:58;;;;;;;0.10;0.10;;;24.20;99.90;;;;;;5061257;28;20060;-78
2023/06/02 09:23:43;;;;;;;0.20;0.20;;;24.10;99.90;;;;;;5060616;28;20198;-78
2023/06/02 09:26:30;;;;;;;0.28;0.28;;;23.80;99.90;;;;;;5041969;28;20049;-77
2023/06/02 09:29:07;;;;;;;0.68;0.68;;;23.90;99.90;;;;;;5059762;28;20017;-77
2023/06/02 09:31:53;;;;;;;0.10;0.10;;;24.40;99.90;;;;;;5040991;28;20464;-77
2023/06/02 09:34:23;;;;;;;0.70;0.70;;;24.40;99.90;;;;;;5059841;28;20028;-85
2023/06/02 09:36:52;;;;;;;0.43;0.43;;;23.90;99.90;;;;;;5043574;28;20073;-78
2023/06/02 09:39:34;;;;;;;0.17;0.17;;;23.80;99.90;;;;;;5060717;28;20711;-78
2023/06/02 09:42:04;;;;;;;0.55;0.55;;;24.70;99.90;;;;;;5061357;28;20037;-77
2023/06/02 09:44:30;;;;;;;0.50;0.50;;;24.60;99.90;;;;;;5043369;28;20617;-77
2023/06/02 09:46:56;;;;;;;0.10;0.10;;;25.00;99.90;;;;;;5059058;28;20028;-76
2023/06/02 09:49:22;;;;;;;0.10;0.10;;;25.30;99.90;;;;;;5059444;28;20649;-77
2023/06/02 09:51:48;;;;;;;0.75;0.70;;;25.60;99.90;;;;;;5059243;28;20028;-78
2023/06/02 09:54:14;;;;;;;0.10;0.10;;;25.80;99.90;;;;;;5059152;28;20049;-82
2023/06/02 09:56:41;;;;;;;0.52;0.47;;;25.90;99.90;;;;;;5059037;28;20073;-77
2023/06/02 09:59:07;;;;;;;4.95;4.20;;;26.00;99.90;;;;;;5059301;28;20021;-80
2023/06/02 10:01:35;;;;;;;1.48;0.38;;;25.80;99.90;;;;;;5058676;28;20031;-78
2023/06/02 10:04:04;;;;;;;0.10;0.10;;;25.20;99.90;;;;;;5058551;28;20024;-77
2023/06/02 10:06:51;;;;;;;0.10;0.10;;;25.00;99.90;;;;;;5041062;28;20667;-77
2023/06/02 10:09:44;;;;;;;1.13;1.08;;;24.60;99.90;;;;;;5058886;28;20033;-76
2023/06/02 10:12:27;;;;;;;0.25;0.25;;;24.60;99.90;;;;;;5058649;28;20024;-76
2023/06/02 10:15:21;;;;;;;0.10;0.10;;;24.20;99.90;;;;;;5058266;28;20028;-76
2023/06/02 10:18:02;;;;;;;0.10;0.10;;;24.20;99.90;;;;;;5058508;28;20118;-77
2023/06/02 10:21:08;;;;;;;0.45;0.45;;;24.00;99.90;;;;;;5057985;28;20024;-77
2023/06/02 10:23:48;;;;;;;1.13;1.13;;;23.80;99.90;;;;;;5058338;28;20429;-79
2023/06/02 10:26:32;;;;;;;0.20;0.20;;;23.80;99.90;;;;;;5057946;28;20098;-77
2023/06/02 10:29:02;;;;;;;0.28;0.28;;;23.80;99.90;;;;;;5058339;28;20687;-76
2023/06/02 10:31:32;;;;;;;0.28;0.28;;;23.60;99.90;;;;;;5023958;28;20017;-77
2023/06/02 10:34:00;;;;;;;0.45;0.45;;;23.60;99.90;;;;;;5057988;28;20017;-76
2023/06/02 10:36:45;;;;;;;0.10;0.10;;;25.30;99.90;;;;;;5058079;28;20190;-77
2023/06/02 10:39:40;;;;;;;0.22;0.22;;;23.40;99.90;;;;;;5057971;28;20029;-82
2023/06/02 10:42:10;;;;;;;0.70;0.70;;;23.20;99.90;;;;;;4955701;28;20253;-78
2023/06/02 10:44:37;;;;;;;0.77;0.75;;;23.10;99.90;;;;;;4955415;28;20031;-75
2023/06/02 10:47:18;;;;;;;0.20;0.20;;;23.10;99.90;;;;;;4956027;28;20043;-80
2023/06/02 10:50:03;;;;;;;0.10;0.10;;;23.20;99.90;;;;;;4955888;28;20019;-77
2023/06/02 10:52:32;;;;;;;0.52;0.52;;;23.30;99.90;;;;;;4955796;28;20061;-75
2023/06/02 10:55:16;;;;;;;0.10;0.10;;;23.30;99.90;;;;;;4956621;28;20122;-78
2023/06/02 10:57:50;;;;;;;0.10;0.10;;;23.40;99.90;;;;;;4958879;28;20023;-75
2023/06/02 11:00:39;;;;;;;0.10;0.10;;;23.50;99.90;;;;;;4939635;28;20620;-77
2023/06/02 11:03:11;;;;;;;0.10;0.10;;;23.60;99.90;;;;;;4955874;28;20121;-75
2023/06/02 11:05:37;;;;;;;0.20;0.20;;;22.20;99.90;;;;;;4956718;28;20034;-80
2023/06/02 11:08:11;;;;;;;0.10;0.10;;;23.90;99.90;;;;;;4941830;28;20110;-79
2023/06/02 11:10:48;;;;;;;0.20;0.20;;;24.40;99.90;;;;;;4957082;28;20709;-76
2023/06/02 11:13:16;;;;;;;0.38;0.38;;;24.80;99.90;;;;;;4940608;28;20469;-77
2023/06/02 11:16:02;;;;;;;0.15;0.15;;;25.20;99.90;;;;;;4940801;28;20038;-77
2023/06/02 11:18:28;;;;;;;0.45;0.45;;;25.50;99.90;;;;;;4993529;28;20487;-76
2023/06/02 11:21:03;;;;;;;0.10;0.10;;;25.40;99.90;;;;;;5058790;28;20025;-80
2023/06/02 11:23:29;;;;;;;0.10;0.10;;;25.20;99.90;;;;;;5058517;28;20329;-77
2023/06/02 11:26:05;;;;;;;0.73;0.73;;;25.00;99.90;;;;;;5039937;28;20028;-77
2023/06/02 11:28:31;;;;;;;0.20;0.20;;;24.90;99.90;;;;;;5057272;28;20029;-77
2023/06/02 11:31:14;;;;;;;0.13;0.13;;;24.60;99.90;;;;;;5057557;28;20016;-76
2023/06/02 11:33:48;;;;;;;0.00;0.00;;;24.30;99.90;;;;;;5059854;28;20066;-76
2023/06/02 11:36:16;;;;;;;0.30;0.30;;;25.20;99.90;;;;;;5040239;28;20174;-84
2023/06/02 11:38:43;;;;;;;0.20;0.20;;;24.80;99.90;;;;;;5058907;28;20479;-77
2023/06/02 11:41:10;;;;;;;2.78;2.58;;;25.40;99.90;;;;;;5058550;28;20213;-76
2023/06/02 11:43:37;;;;;;;2.25;2.08;;;;;;;;;;5058591;28;20551;-77
2023/06/02 11:46:13;;;;;;;2.25;1.48;;;26.40;99.90;;;;;;5039850;28;20039;-77
2023/06/02 11:48:43;;;;;;;0.22;0.22;;;27.10;98.50;;;;;;5058240;28;20051;-76
2023/06/02 11:51:13;;;;;;;11.10;2.35;;;27.80;96.70;;;;;;5058338;28;20229;-79
2023/06/02 11:53:47;;;;;;;0.73;0.73;;;29.10;91.90;;;;;;5060136;28;20355;-76
2023/06/02 11:56:14;;;;;;;2.75;2.55;;;29.70;87.50;;;;;;5047587;28;20238;-77
2023/06/02 11:58:41;;;;;;;1.27;0.68;;;29.90;82.30;;;;;;5063658;28;20054;-80
2023/06/02 12:01:09;;;;;;;2.55;2.33;;;30.20;78.10;;;;;;5062750;28;20091;-84
2023/06/02 12:03:36;;;;;;;1.48;0.70;;;30.30;76.90;;;;;;5063697;28;20025;-82
2023/06/02 12:06:15;;;;;;;2.00;1.90;;;30.60;76.30;;;;;;5062718;28;20546;-78
2023/06/02 12:08:42;;;;;;;4.80;2.78;;;29.90;77.10;;;;;;5062451;28;20107;-76
2023/06/02 12:11:15;;;;;;;0.30;0.30;;;29.70;74.00;;;;;;5064188;28;20017;-76
2023/06/02 12:13:41;;;;;;;0.50;0.50;;;28.50;75.80;;;;;;5063442;28;20225;-76
2023/06/02 12:16:21;;;;;;;0.13;0.13;;;28.00;80.50;;;;;;5042278;28;20114;-75
2023/06/02 12:18:47;;;;;;;0.10;0.10;;;27.70;80.40;;;;;;5060589;28;20055;-76
2023/06/02 12:21:28;;;;;;;0.55;0.43;;;27.30;83.00;;;;;;5060495;28;20036;-76
2023/06/02 12:24:02;;;;;;;1.58;1.55;;;26.90;87.00;;;;;;5060677;28;20083;-77
2023/06/02 12:26:42;;;;;;;0.10;0.10;;;26.30;91.90;;;;;;5060292;28;20087;-75
2023/06/02 12:29:09;;;;;;;0.75;0.75;;;24.50;94.00;;;;;;5060186;28;20013;-75
2023/06/02 12:31:35;;;;;;;0.45;0.45;;;25.70;97.10;;;;;;5060263;28;20024;-76
2023/06/02 12:34:01;;;;;;;0.10;0.10;;;25.20;99.90;;;;;;5060989;28;20031;-75
2023/06/02 12:36:27;;;;;;;1.38;1.27;;;24.70;99.90;;;;;;5060684;28;20028;-77
2023/06/02 12:38:53;;;;;;;0.52;0.52;;;24.60;99.90;;;;;;5060313;28;20209;-76
2023/06/02 12:41:18;;;;;;;0.10;0.10;;;24.30;99.90;;;;;;5059864;28;20032;-76
2023/06/02 12:43:44;;;;;;;0.17;0.17;;;24.00;99.90;;;;;;5042187;28;20115;-75
2023/06/02 12:46:13;;;;;;;0.13;0.13;;;23.90;99.90;;;;;;5060046;28;20029;-76
2023/06/02 12:48:40;;;;;;;0.05;0.05;;;23.80;99.90;;;;;;5059907;28;20668;-75
2023/06/02 12:51:08;;;;;;;0.10;0.10;;;23.60;99.90;;;;;;5060309;28;20051;-77
2023/06/02 12:53:35;;;;;;;0.10;0.10;;;23.50;99.90;;;;;;5059873;28;20049;-77
2023/06/02 12:56:01;;;;;;;0.68;0.45;;;23.60;99.90;;;;;;5041653;28;20044;-77